Terminal Aerodrome Forecast
Issued by NWS

Home | Current Version | Previous Version | Text Only | Print | Product List | Glossary On
Versions: 1 2 3 4 5 6 7 8 9 10 11 12 13 14 15 16 17 18 19 20 21 22 23 24 25 26 27
000
FTUS41 KOKX 241100 RRA
TAFSWF
TAF
KSWF 241149Z 2412/2518 16012G19KT 5SM -SHRA BR OVC015
     FM241400 18012G21KT 5SM BR OVC015
     FM241600 20012G21KT 6SM BR BKN015
     FM241900 21015G28KT P6SM SCT020 SCT250
     FM250000 23011G19KT P6SM SCT020 BKN250
     FM250400 25009KT P6SM SCT020 BKN250
     FM251400 26013G21KT P6SM BKN250
      AMD NOT SKED=

USA.gov is the U.S. government's official web portal to all federal, state and local government web resources and services.